Time;durP1;ratioP1;P1;durP2;ratioP2;P2;SDS_P1;SDS_P2;PMS_P1;PMS_P2;Temp;Humidity;BMP_temperature;BMP_pressure;BME280_temperature;BME280_humidity;BME280_pressure;Samples;Min_cycle;Max_cycle;Signal;HPM_P1;HPM_P2
2022/05/19 00:01:21;;;;;;;11.18;5.38;;;17.70;99.90;;;;;;5053541;28;20688;-69
2022/05/19 00:03:46;;;;;;;9.95;5.13;;;17.70;99.90;;;;;;5088190;28;20290;-69
2022/05/19 00:06:13;;;;;;;7.55;4.50;;;17.70;99.90;;;;;;5053608;28;20044;-69
2022/05/19 00:08:39;;;;;;;7.35;4.13;;;17.70;99.90;;;;;;5068697;28;20048;-69
2022/05/19 00:11:09;;;;;;;7.35;4.70;;;17.70;99.90;;;;;;5070048;28;20040;-69
2022/05/19 00:13:35;;;;;;;8.98;4.47;;;17.60;99.90;;;;;;5088554;28;20280;-69
2022/05/19 00:16:01;;;;;;;11.48;5.50;;;17.60;99.90;;;;;;5070323;28;20040;-69
2022/05/19 00:18:26;;;;;;;9.77;5.10;;;17.60;99.90;;;;;;5088128;28;20040;-69
2022/05/19 00:20:52;;;;;;;7.28;3.90;;;17.60;99.90;;;;;;5088297;28;20043;-69
2022/05/19 00:23:18;;;;;;;7.13;4.68;;;17.50;99.90;;;;;;5087220;28;20097;-69
2022/05/19 00:25:44;;;;;;;6.75;4.50;;;17.50;99.90;;;;;;5088353;28;20439;-69
2022/05/19 00:28:10;;;;;;;12.73;5.40;;;17.50;99.90;;;;;;5070491;28;20044;-69
2022/05/19 00:30:39;;;;;;;9.30;5.00;;;17.40;99.90;;;;;;5053474;28;20506;-69
2022/05/19 00:33:05;;;;;;;6.97;4.32;;;17.40;99.90;;;;;;5088123;28;20067;-69
2022/05/19 00:35:30;;;;;;;8.73;5.07;;;17.40;99.90;;;;;;5088408;28;20040;-69
2022/05/19 00:37:56;;;;;;;8.05;4.53;;;17.40;99.90;;;;;;5070229;28;20047;-69
2022/05/19 00:40:23;;;;;;;7.13;4.50;;;17.40;99.90;;;;;;5091788;28;20040;-69
2022/05/19 00:42:50;;;;;;;9.13;4.22;;;17.30;99.90;;;;;;5091901;28;20079;-69
2022/05/19 00:45:32;;;;;;;9.20;4.82;;;17.20;99.90;;;;;;5057540;28;20043;-69
2022/05/19 00:48:12;;;;;;;8.48;4.95;;;17.20;99.90;;;;;;5091706;28;20047;-69
2022/05/19 00:51:01;;;;;;;9.27;5.13;;;17.20;99.90;;;;;;5073401;28;20040;-68
2022/05/19 00:53:34;;;;;;;9.20;4.43;;;17.20;99.90;;;;;;5072504;28;20556;-69
2022/05/19 00:56:03;;;;;;;10.07;5.05;;;17.20;99.90;;;;;;5057454;28;20333;-68
2022/05/19 00:58:57;;;;;;;9.93;5.55;;;17.10;99.90;;;;;;5073454;28;20339;-69
2022/05/19 01:01:22;;;;;;;8.90;4.70;;;17.10;99.90;;;;;;5073092;28;20121;-69
2022/05/19 01:03:55;;;;;;;8.27;4.70;;;17.10;99.90;;;;;;5073120;28;20036;-68
2022/05/19 01:06:23;;;;;;;9.63;5.13;;;17.10;99.90;;;;;;5056805;28;20644;-68
2022/05/19 01:08:59;;;;;;;8.70;5.40;;;17.00;99.90;;;;;;5069898;28;20032;-68
2022/05/19 01:11:25;;;;;;;14.00;5.70;;;17.00;99.90;;;;;;5057002;28;20044;-68
2022/05/19 01:13:51;;;;;;;10.70;6.57;;;17.00;99.90;;;;;;5072878;28;20129;-69
2022/05/19 01:16:18;;;;;;;9.45;5.35;;;17.00;99.90;;;;;;5068251;28;20050;-68
2022/05/19 01:18:45;;;;;;;8.90;5.20;;;17.00;99.90;;;;;;5072843;28;20040;-68
2022/05/19 01:21:14;;;;;;;9.15;5.40;;;17.00;99.90;;;;;;5055831;28;20046;-68
2022/05/19 01:24:11;;;;;;;10.45;6.13;;;16.90;99.90;;;;;;5090992;28;20283;-68
2022/05/19 01:26:42;;;;;;;10.40;5.90;;;16.90;99.90;;;;;;5072250;28;20039;-69
2022/05/19 01:29:10;;;;;;;15.23;7.15;;;16.90;99.90;;;;;;5056458;28;20037;-69
2022/05/19 01:31:43;;;;;;;10.15;5.80;;;17.00;99.90;;;;;;5052366;28;20351;-68
2022/05/19 01:34:08;;;;;;;10.70;5.78;;;17.00;99.90;;;;;;5070729;28;20041;-68
2022/05/19 01:36:35;;;;;;;12.30;7.10;;;16.90;99.90;;;;;;5052258;28;20041;-69
2022/05/19 01:39:05;;;;;;;11.57;7.18;;;16.90;99.90;;;;;;5052660;28;20405;-68
2022/05/19 01:41:56;;;;;;;12.73;7.60;;;16.90;99.90;;;;;;5051996;28;20084;-69
2022/05/19 01:44:28;;;;;;;15.50;8.05;;;16.90;99.90;;;;;;5052574;28;20044;-68
2022/05/19 01:47:02;;;;;;;12.18;7.70;;;16.90;99.90;;;;;;5036294;28;20486;-68
2022/05/19 01:49:33;;;;;;;14.20;8.00;;;16.90;99.90;;;;;;5069328;28;20293;-68
2022/05/19 01:52:16;;;;;;;19.17;8.50;;;16.90;99.90;;;;;;5052290;28;20073;-69
2022/05/19 01:54:57;;;;;;;16.85;9.23;;;16.80;99.90;;;;;;5051162;28;20501;-68
2022/05/19 01:57:46;;;;;;;15.85;8.05;;;16.90;99.90;;;;;;5052097;28;20441;-68
2022/05/19 02:00:19;;;;;;;16.67;9.07;;;16.90;99.90;;;;;;5086584;28;20422;-68
2022/05/19 02:02:56;;;;;;;16.85;9.02;;;16.80;99.90;;;;;;5055800;28;20051;-68
2022/05/19 02:05:44;;;;;;;16.13;9.02;;;16.80;99.90;;;;;;5055726;28;20115;-68
2022/05/19 02:08:15;;;;;;;14.93;8.18;;;16.80;99.90;;;;;;5072214;28;20044;-68
2022/05/19 02:10:45;;;;;;;15.50;9.20;;;16.70;99.90;;;;;;5071259;28;20044;-69
2022/05/19 02:13:11;;;;;;;17.98;8.55;;;16.80;99.90;;;;;;5055944;28;20032;-69
2022/05/19 02:15:40;;;;;;;18.95;8.30;;;16.70;99.90;;;;;;5090027;28;20462;-69
2022/05/19 02:18:07;;;;;;;15.02;8.85;;;16.70;99.90;;;;;;5090301;28;20057;-69
2022/05/19 02:20:35;;;;;;;16.20;9.35;;;16.70;99.90;;;;;;5071581;28;20040;-69
2022/05/19 02:23:01;;;;;;;14.43;8.35;;;16.70;99.90;;;;;;5071969;28;20059;-69
2022/05/19 02:26:02;;;;;;;14.45;8.02;;;16.70;99.90;;;;;;5089026;28;20044;-69
2022/05/19 02:28:37;;;;;;;14.23;9.55;;;16.70;99.90;;;;;;5007437;28;20045;-69
2022/05/19 02:31:03;;;;;;;16.75;9.70;;;16.70;99.90;;;;;;5063085;28;20379;-69
2022/05/19 02:33:29;;;;;;;21.23;9.68;;;16.70;99.90;;;;;;5071511;28;20122;-69
2022/05/19 02:35:55;;;;;;;17.13;10.57;;;16.70;99.90;;;;;;5089682;28;20433;-69
2022/05/19 02:38:22;;;;;;;19.98;10.80;;;16.70;99.90;;;;;;5055071;28;20044;-69
2022/05/19 02:40:48;;;;;;;19.70;10.43;;;16.70;99.90;;;;;;5088283;28;20047;-68
2022/05/19 02:43:15;;;;;;;19.65;10.35;;;16.60;99.90;;;;;;5089360;28;20523;-68
2022/05/19 02:45:41;;;;;;;18.55;9.75;;;16.60;99.90;;;;;;5089418;28;20043;-68
2022/05/19 02:48:08;;;;;;;17.88;10.25;;;16.60;99.90;;;;;;5071345;28;20032;-68
2022/05/19 02:50:35;;;;;;;20.00;10.55;;;16.60;99.90;;;;;;5053972;28;20193;-68
2022/05/19 02:53:00;;;;;;;19.38;10.40;;;16.60;99.90;;;;;;5089536;28;20035;-68
2022/05/19 02:55:26;;;;;;;19.23;11.18;;;16.60;99.90;;;;;;5070147;28;20047;-68
2022/05/19 02:57:52;;;;;;;19.73;10.48;;;16.60;99.90;;;;;;5071270;28;20080;-68
2022/05/19 03:00:22;;;;;;;19.73;9.98;;;16.60;99.90;;;;;;5089429;28;20043;-68
2022/05/19 03:02:48;;;;;;;21.02;11.40;;;16.60;99.90;;;;;;5054218;28;20548;-68
2022/05/19 03:05:19;;;;;;;17.40;10.40;;;16.60;99.90;;;;;;5070719;28;20036;-68
2022/05/19 03:07:44;;;;;;;29.85;12.23;;;16.60;99.90;;;;;;5070917;28;20044;-68
2022/05/19 03:10:11;;;;;;;20.73;12.38;;;16.60;99.90;;;;;;5070191;28;20189;-68
2022/05/19 03:12:36;;;;;;;21.55;11.70;;;16.60;99.90;;;;;;5070267;28;20051;-68
2022/05/19 03:15:04;;;;;;;22.85;11.63;;;16.60;99.90;;;;;;5054160;28;20409;-68
2022/05/19 03:17:29;;;;;;;21.23;11.52;;;16.60;99.90;;;;;;5054166;28;20062;-69
2022/05/19 03:19:56;;;;;;;21.45;11.07;;;16.60;99.90;;;;;;5070792;28;20047;-68
2022/05/19 03:22:22;;;;;;;23.15;11.73;;;16.60;99.90;;;;;;5089035;28;20048;-68
2022/05/19 03:24:48;;;;;;;17.20;10.80;;;16.60;99.90;;;;;;5053273;28;20044;-68
2022/05/19 03:27:14;;;;;;;21.45;11.15;;;16.60;99.90;;;;;;5070611;28;20083;-68
2022/05/19 03:29:40;;;;;;;19.63;10.88;;;16.60;99.90;;;;;;5070450;28;20111;-68
2022/05/19 03:32:06;;;;;;;20.38;11.35;;;16.60;99.90;;;;;;5070627;28;20060;-68
2022/05/19 03:34:31;;;;;;;22.42;12.15;;;16.60;99.90;;;;;;5070660;28;20402;-68
2022/05/19 03:36:57;;;;;;;19.35;11.38;;;16.60;99.90;;;;;;5088778;28;20045;-68
2022/05/19 03:39:22;;;;;;;18.40;11.07;;;16.60;99.90;;;;;;5069874;28;20497;-68
2022/05/19 03:41:48;;;;;;;20.02;10.52;;;16.60;99.90;;;;;;5070363;28;20043;-68
2022/05/19 03:44:14;;;;;;;21.25;11.75;;;16.50;99.90;;;;;;5054040;28;20043;-68
2022/05/19 03:46:40;;;;;;;23.75;11.02;;;16.50;99.90;;;;;;5070662;28;20068;-68
2022/05/19 03:49:05;;;;;;;18.58;10.75;;;16.50;99.90;;;;;;5070439;28;20047;-68
2022/05/19 03:51:32;;;;;;;19.88;11.40;;;16.40;99.90;;;;;;5070331;28;20446;-68
2022/05/19 03:53:58;;;;;;;22.33;10.98;;;16.40;99.90;;;;;;5054177;28;20052;-68
2022/05/19 03:56:24;;;;;;;18.25;10.57;;;16.40;99.90;;;;;;5069695;28;20485;-68
2022/05/19 03:58:50;;;;;;;21.27;11.13;;;16.40;99.90;;;;;;5053952;28;20044;-68
2022/05/19 04:01:20;;;;;;;22.35;11.43;;;16.40;99.90;;;;;;5088512;28;20039;-68
2022/05/19 04:03:47;;;;;;;19.00;10.27;;;16.40;99.90;;;;;;5070138;28;20040;-69
2022/05/19 04:06:13;;;;;;;21.63;11.95;;;16.40;99.90;;;;;;5088607;28;20036;-68
2022/05/19 04:08:38;;;;;;;20.98;11.98;;;16.40;99.90;;;;;;5070174;28;20040;-69
2022/05/19 04:11:04;;;;;;;21.67;10.70;;;16.40;99.90;;;;;;5069035;28;20722;-68
2022/05/19 04:13:30;;;;;;;19.92;12.30;;;16.40;99.90;;;;;;5072429;28;20088;-68
2022/05/19 04:15:56;;;;;;;22.13;11.02;;;16.40;99.90;;;;;;5074285;28;20555;-68
2022/05/19 04:18:22;;;;;;;18.83;11.25;;;16.50;99.90;;;;;;5074072;28;20558;-68
2022/05/19 04:20:47;;;;;;;20.27;12.00;;;16.50;99.90;;;;;;5056888;28;20075;-68
2022/05/19 04:23:14;;;;;;;22.65;11.52;;;16.50;99.90;;;;;;5091893;28;20036;-68
2022/05/19 04:25:40;;;;;;;22.45;10.60;;;16.50;99.90;;;;;;5072777;28;20503;-68
2022/05/19 04:28:06;;;;;;;19.85;12.32;;;16.50;99.90;;;;;;5073789;28;20044;-68
2022/05/19 04:30:32;;;;;;;21.90;11.82;;;16.50;99.90;;;;;;5057097;28;20405;-68
2022/05/19 04:32:58;;;;;;;20.42;11.43;;;16.50;99.90;;;;;;5073792;28;20099;-68
2022/05/19 04:35:23;;;;;;;19.05;11.25;;;16.50;99.90;;;;;;5092056;28;20083;-68
2022/05/19 04:37:50;;;;;;;24.40;11.88;;;16.60;99.90;;;;;;5091827;28;20069;-68
2022/05/19 04:40:17;;;;;;;20.10;11.27;;;16.60;99.90;;;;;;5072812;28;20086;-68
2022/05/19 04:42:43;;;;;;;22.95;12.35;;;16.60;99.90;;;;;;5091804;28;20127;-68
2022/05/19 04:45:11;;;;;;;26.17;13.50;;;16.70;99.90;;;;;;5057519;28;20671;-68
2022/05/19 04:47:36;;;;;;;19.25;11.23;;;16.70;99.90;;;;;;5073709;28;20451;-68
2022/05/19 04:50:02;;;;;;;25.05;12.23;;;16.80;99.90;;;;;;5073435;28;20044;-68
2022/05/19 04:52:28;;;;;;;22.50;11.63;;;16.80;99.90;;;;;;5091493;28;20469;-68
2022/05/19 04:54:53;;;;;;;19.58;10.90;;;16.90;99.90;;;;;;5073131;28;20457;-68
2022/05/19 04:57:19;;;;;;;21.90;11.77;;;16.90;99.90;;;;;;5073494;28;20067;-68
2022/05/19 04:59:45;;;;;;;19.75;11.52;;;16.90;99.90;;;;;;5073350;28;20056;-68
2022/05/19 05:02:11;;;;;;;22.92;12.95;;;16.90;99.90;;;;;;5073678;28;20040;-68
2022/05/19 05:04:37;;;;;;;23.08;12.00;;;16.90;99.90;;;;;;5073189;28;20107;-68
2022/05/19 05:07:03;;;;;;;24.58;12.57;;;16.90;99.90;;;;;;5073262;28;20046;-68
2022/05/19 05:09:29;;;;;;;20.77;11.52;;;16.90;99.90;;;;;;5071789;28;20040;-69
2022/05/19 05:11:54;;;;;;;23.55;11.45;;;16.90;99.90;;;;;;5073699;28;20065;-69
2022/05/19 05:14:20;;;;;;;26.05;12.43;;;17.00;99.90;;;;;;5072986;28;20138;-68
2022/05/19 05:16:52;;;;;;;22.98;12.05;;;17.00;99.90;;;;;;5072805;28;20123;-68
2022/05/19 05:19:21;;;;;;;18.25;10.90;;;17.00;99.90;;;;;;5056223;28;20044;-68
2022/05/19 05:21:48;;;;;;;17.75;10.50;;;17.10;99.90;;;;;;5072635;28;20341;-68
2022/05/19 05:24:14;;;;;;;17.60;9.90;;;17.10;99.90;;;;;;5054273;28;20063;-68
2022/05/19 05:26:40;;;;;;;16.08;10.05;;;17.10;99.90;;;;;;5072376;28;20051;-68
2022/05/19 05:29:05;;;;;;;15.43;9.27;;;17.20;99.90;;;;;;5055999;28;20397;-68
2022/05/19 05:31:31;;;;;;;13.07;8.25;;;17.20;99.90;;;;;;5072708;28;20075;-68
2022/05/19 05:33:56;;;;;;;16.45;8.57;;;17.30;99.90;;;;;;5072842;28;20048;-68
2022/05/19 05:36:22;;;;;;;14.95;8.93;;;17.30;99.90;;;;;;5090470;28;20065;-68
2022/05/19 05:38:48;;;;;;;16.48;9.27;;;17.40;99.90;;;;;;5055702;28;20052;-68
2022/05/19 05:41:14;;;;;;;16.42;8.75;;;17.50;99.90;;;;;;5071700;28;20125;-68
2022/05/19 05:43:40;;;;;;;18.88;8.80;;;17.50;99.90;;;;;;5072255;28;20688;-68
2022/05/19 05:46:14;;;;;;;14.90;8.18;;;17.60;99.90;;;;;;5091013;28;20412;-68
2022/05/19 05:48:40;;;;;;;12.35;8.38;;;17.70;99.90;;;;;;5072319;28;20492;-68
2022/05/19 05:51:08;;;;;;;14.02;8.68;;;17.90;99.90;;;;;;5090330;28;20063;-68
2022/05/19 05:53:35;;;;;;;15.18;8.05;;;18.00;99.90;;;;;;5072750;28;20396;-68
2022/05/19 05:56:01;;;;;;;12.57;7.43;;;18.20;99.90;;;;;;5071908;28;20056;-68
2022/05/19 05:58:27;;;;;;;12.98;7.80;;;18.30;99.90;;;;;;5072643;28;20058;-68
2022/05/19 06:00:53;;;;;;;12.02;7.60;;;18.40;99.90;;;;;;5072405;28;20052;-68
2022/05/19 06:03:19;;;;;;;13.35;7.57;;;18.50;99.90;;;;;;5072227;28;20056;-68
2022/05/19 06:05:44;;;;;;;13.40;7.13;;;18.70;99.90;;;;;;5071836;28;20096;-68
2022/05/19 06:08:10;;;;;;;12.57;6.82;;;18.80;99.90;;;;;;5072300;28;20074;-68
2022/05/19 06:10:36;;;;;;;9.98;5.85;;;18.90;99.90;;;;;;5070960;28;20032;-68
2022/05/19 06:13:02;;;;;;;12.15;6.30;;;19.00;99.90;;;;;;5072185;28;20040;-68
2022/05/19 06:15:28;;;;;;;13.15;5.75;;;19.00;99.90;;;;;;5072107;28;20062;-68
2022/05/19 06:17:53;;;;;;;10.52;5.70;;;19.00;99.90;;;;;;5071803;28;20405;-68
2022/05/19 06:20:20;;;;;;;9.55;5.22;;;19.00;99.90;;;;;;5090155;28;20073;-68
2022/05/19 06:22:46;;;;;;;9.63;5.80;;;19.10;99.90;;;;;;5071681;28;20044;-68
2022/05/19 06:25:16;;;;;;;8.65;5.60;;;19.10;99.90;;;;;;5089095;28;20055;-68
2022/05/19 06:27:42;;;;;;;10.70;5.22;;;19.40;99.90;;;;;;5071646;28;20307;-68
2022/05/19 06:30:09;;;;;;;8.40;5.47;;;19.90;99.90;;;;;;5089886;28;20115;-68
2022/05/19 06:32:39;;;;;;;7.97;4.60;;;20.40;99.90;;;;;;5071376;28;20067;-68
2022/05/19 06:35:06;;;;;;;7.57;3.75;;;21.00;99.90;;;;;;5070933;28;20051;-68
2022/05/19 06:37:32;;;;;;;5.15;3.38;;;21.40;99.90;;;;;;5071560;28;20048;-68
2022/05/19 06:39:58;;;;;;;8.32;4.10;;;21.80;99.90;;;;;;5070629;28;20461;-68
2022/05/19 06:42:23;;;;;;;6.13;4.05;;;22.10;99.90;;;;;;5071776;28;20143;-68
2022/05/19 06:44:50;;;;;;;6.00;3.20;;;22.40;99.90;;;;;;5071235;28;20469;-68
2022/05/19 06:47:16;;;;;;;5.68;3.92;;;22.50;99.90;;;;;;5071431;28;20098;-68
2022/05/19 06:49:47;;;;;;;6.93;3.85;;;22.30;99.90;;;;;;5089286;28;20071;-68
2022/05/19 06:52:15;;;;;;;6.63;3.83;;;22.00;99.90;;;;;;5054570;28;20047;-68
2022/05/19 06:54:45;;;;;;;6.60;3.63;;;21.80;99.90;;;;;;5070008;28;20036;-68
2022/05/19 06:57:11;;;;;;;5.20;3.30;;;21.50;99.90;;;;;;5089373;28;20036;-68
2022/05/19 06:59:37;;;;;;;7.40;3.53;;;21.20;99.90;;;;;;5088865;28;20042;-69
2022/05/19 07:02:04;;;;;;;7.15;3.95;;;20.90;99.90;;;;;;5071096;28;20044;-68
2022/05/19 07:04:29;;;;;;;7.93;3.80;;;20.70;99.90;;;;;;5070394;28;20052;-68
2022/05/19 07:06:55;;;;;;;5.75;3.15;;;20.60;99.90;;;;;;5089241;28;20054;-68
2022/05/19 07:09:20;;;;;;;6.53;3.60;;;20.40;99.90;;;;;;5070021;28;20035;-68
2022/05/19 07:11:46;;;;;;;6.68;3.70;;;20.20;99.90;;;;;;5070872;28;20044;-68
2022/05/19 07:14:12;;;;;;;6.40;3.40;;;20.10;99.90;;;;;;5070650;28;20052;-68
2022/05/19 07:16:37;;;;;;;7.35;4.30;;;19.90;99.90;;;;;;5070732;28;20038;-68
2022/05/19 07:21:48;;;;;;;9.65;3.90;;;19.70;99.90;;;;;;5070836;28;20051;-68
2022/05/19 07:24:16;;;;;;;7.93;3.85;;;19.60;99.90;;;;;;5070260;28;20073;-68
2022/05/19 07:26:47;;;;;;;6.75;4.13;;;19.60;99.90;;;;;;5070505;28;20066;-68
2022/05/19 07:29:13;;;;;;;7.13;4.40;;;19.60;99.90;;;;;;5089127;28;20036;-68
2022/05/19 07:31:39;;;;;;;8.55;4.53;;;19.50;99.90;;;;;;5053946;28;20148;-68
2022/05/19 07:34:05;;;;;;;6.80;3.95;;;19.60;99.90;;;;;;5070721;28;20101;-68
2022/05/19 07:36:32;;;;;;;5.57;4.10;;;19.60;99.90;;;;;;5070714;28;20046;-68
2022/05/19 07:38:59;;;;;;;7.10;4.10;;;19.50;99.90;;;;;;5070849;28;20129;-68
2022/05/19 07:41:26;;;;;;;8.02;4.00;;;19.50;99.90;;;;;;5069786;28;20048;-68
2022/05/19 07:43:53;;;;;;;7.43;4.38;;;19.50;99.90;;;;;;5089186;28;20354;-68
2022/05/19 07:46:19;;;;;;;8.88;4.25;;;19.40;99.90;;;;;;5070655;28;20456;-68
2022/05/19 07:48:44;;;;;;;7.90;4.22;;;19.30;99.90;;;;;;5088475;28;20063;-68
2022/05/19 07:51:10;;;;;;;9.82;4.18;;;19.30;99.90;;;;;;5070389;28;20508;-68
2022/05/19 07:53:36;;;;;;;8.07;4.35;;;19.30;99.90;;;;;;5088662;28;20414;-68
2022/05/19 07:56:02;;;;;;;7.95;5.00;;;19.20;99.90;;;;;;5069441;28;20054;-68
2022/05/19 07:58:29;;;;;;;8.65;4.93;;;19.10;99.90;;;;;;5070511;28;20093;-68
2022/05/19 08:00:56;;;;;;;9.98;5.13;;;19.10;99.90;;;;;;5070500;28;20076;-68
2022/05/19 08:03:24;;;;;;;6.80;4.15;;;19.10;99.90;;;;;;5070511;28;20045;-68
2022/05/19 08:05:50;;;;;;;8.88;4.60;;;19.10;99.90;;;;;;5069906;28;20478;-68
2022/05/19 08:08:16;;;;;;;7.97;4.88;;;19.10;99.90;;;;;;5070242;28;20039;-68
2022/05/19 08:10:42;;;;;;;9.95;4.70;;;19.10;99.90;;;;;;5087194;28;20043;-68
2022/05/19 08:15:52;;;;;;;7.22;4.45;;;19.10;99.90;;;;;;5057957;28;20048;-68
2022/05/19 08:18:23;;;;;;;9.02;5.05;;;19.10;99.90;;;;;;5068202;28;20051;-68
2022/05/19 08:20:49;;;;;;;11.60;6.20;;;19.10;99.90;;;;;;5049676;28;20036;-68
2022/05/19 08:23:25;;;;;;;9.10;4.68;;;19.10;99.90;;;;;;5049926;28;20055;-68
2022/05/19 08:25:51;;;;;;;9.00;5.43;;;19.10;99.90;;;;;;5048993;28;20048;-68
2022/05/19 08:28:18;;;;;;;9.65;5.72;;;19.00;99.90;;;;;;5069354;28;20544;-68
2022/05/19 08:30:47;;;;;;;8.65;5.28;;;19.00;99.90;;;;;;5088002;28;20088;-68
2022/05/19 08:33:14;;;;;;;10.35;6.40;;;19.00;99.90;;;;;;5088013;28;20052;-67
2022/05/19 08:35:40;;;;;;;11.35;5.88;;;19.00;99.90;;;;;;5087476;28;20044;-68
2022/05/19 08:38:06;;;;;;;11.02;6.30;;;19.00;99.90;;;;;;5070550;28;20421;-68
2022/05/19 08:40:41;;;;;;;8.98;5.30;;;19.00;99.90;;;;;;5069046;28;20036;-68
2022/05/19 08:43:10;;;;;;;10.13;5.80;;;19.00;99.90;;;;;;5070084;28;20086;-68
2022/05/19 08:45:42;;;;;;;9.73;5.75;;;19.00;99.90;;;;;;5070372;28;20040;-68
2022/05/19 08:48:15;;;;;;;9.07;5.03;;;19.10;99.90;;;;;;5088458;28;20648;-68
2022/05/19 08:50:50;;;;;;;9.27;4.72;;;19.10;99.90;;;;;;5069558;28;20032;-68
2022/05/19 08:53:16;;;;;;;7.97;4.65;;;19.10;99.90;;;;;;5088615;28;20055;-68
2022/05/19 08:55:45;;;;;;;10.18;5.40;;;19.20;99.90;;;;;;5087075;28;20036;-68
2022/05/19 08:58:33;;;;;;;11.45;5.70;;;19.20;99.90;;;;;;5070131;28;20043;-68
2022/05/19 09:01:42;;;;;;;8.27;5.72;;;19.30;99.90;;;;;;5073449;28;20086;-68
2022/05/19 09:04:47;;;;;;;9.55;4.85;;;19.40;99.90;;;;;;5026730;28;20386;-68
2022/05/19 09:10:11;;;;;;;10.95;5.35;;;19.50;99.90;;;;;;5072263;28;20048;-68
2022/05/19 09:12:39;;;;;;;8.88;5.03;;;19.60;99.90;;;;;;5073717;28;20134;-68
2022/05/19 09:15:08;;;;;;;7.05;4.78;;;19.60;99.90;;;;;;5056755;28;20040;-68
2022/05/19 09:17:37;;;;;;;7.40;5.03;;;19.70;99.90;;;;;;5091864;28;20130;-68
2022/05/19 09:20:09;;;;;;;8.18;4.70;;;19.70;99.90;;;;;;5056624;28;20052;-68
2022/05/19 09:22:35;;;;;;;9.18;4.93;;;19.80;99.90;;;;;;5056237;28;20098;-68
2022/05/19 09:25:08;;;;;;;8.75;5.00;;;19.90;99.90;;;;;;5072175;28;20036;-68
2022/05/19 09:27:36;;;;;;;8.23;4.93;;;20.00;99.90;;;;;;5072884;28;20033;-68
2022/05/19 09:30:02;;;;;;;6.60;4.70;;;20.00;99.90;;;;;;5090636;28;20477;-68
2022/05/19 09:32:34;;;;;;;8.82;5.15;;;20.00;99.90;;;;;;5090953;28;20051;-68
2022/05/19 09:35:07;;;;;;;7.45;4.70;;;20.10;99.90;;;;;;5072347;28;20044;-68
2022/05/19 09:37:42;;;;;;;7.65;5.38;;;20.10;99.90;;;;;;5072720;28;20051;-68
2022/05/19 09:40:11;;;;;;;7.28;4.40;;;20.10;99.90;;;;;;5090039;28;20040;-68
2022/05/19 09:42:53;;;;;;;7.97;4.70;;;20.20;99.90;;;;;;5090886;28;20100;-68
2022/05/19 09:45:27;;;;;;;8.60;4.90;;;20.20;99.90;;;;;;5072540;28;20051;-68
2022/05/19 09:48:00;;;;;;;11.93;5.35;;;20.40;99.90;;;;;;5090547;28;20040;-68
2022/05/19 09:50:29;;;;;;;7.72;4.88;;;20.40;99.90;;;;;;5090253;28;20052;-68
2022/05/19 09:53:07;;;;;;;9.23;4.97;;;20.50;99.90;;;;;;5090767;28;20040;-68
2022/05/19 09:55:41;;;;;;;9.82;5.65;;;20.60;99.90;;;;;;5071496;28;20048;-68
2022/05/19 09:58:09;;;;;;;9.38;5.18;;;20.70;99.90;;;;;;5072358;28;20386;-68
2022/05/19 10:00:43;;;;;;;9.18;5.60;;;20.80;99.90;;;;;;5072226;28;20051;-68
2022/05/19 10:03:17;;;;;;;8.55;4.70;;;20.80;99.90;;;;;;5072072;28;20043;-68
2022/05/19 10:05:42;;;;;;;8.75;4.63;;;20.80;99.90;;;;;;5056114;28;20547;-68
2022/05/19 10:08:19;;;;;;;7.57;4.57;;;20.80;99.90;;;;;;5090014;28;20032;-68
2022/05/19 10:10:55;;;;;;;11.07;5.03;;;20.80;99.90;;;;;;5070353;28;20071;-68
2022/05/19 10:13:28;;;;;;;8.38;4.90;;;20.80;99.90;;;;;;5071693;28;20055;-68
2022/05/19 10:16:12;;;;;;;7.32;4.78;;;20.90;99.90;;;;;;5077839;28;20078;-68
2022/05/19 10:18:51;;;;;;;8.02;4.43;;;20.90;99.90;;;;;;5069846;28;20473;-68
2022/05/19 10:21:51;;;;;;;7.75;4.50;;;21.00;99.90;;;;;;5051692;28;20052;-68
2022/05/19 10:24:52;;;;;;;6.40;4.50;;;20.90;99.90;;;;;;5084689;28;20055;-68
2022/05/19 10:33:41;;;;;;;9.52;5.25;;;21.00;99.90;;;;;;5089794;28;20051;-68
2022/05/19 10:36:25;;;;;;;8.70;4.95;;;21.00;99.90;;;;;;5089463;28;20102;-68
2022/05/19 10:39:32;;;;;;;8.57;4.82;;;21.00;99.90;;;;;;5071910;28;20475;-68
2022/05/19 10:42:17;;;;;;;8.88;4.75;;;21.10;99.90;;;;;;5089775;28;20047;-68
2022/05/19 10:45:07;;;;;;;9.23;5.82;;;21.30;99.90;;;;;;5089488;28;20135;-68
2022/05/19 10:47:51;;;;;;;9.25;5.45;;;21.40;99.90;;;;;;5071861;28;20212;-68
2022/05/19 10:50:30;;;;;;;11.93;6.68;;;21.50;99.90;;;;;;5071155;28;20242;-68
2022/05/19 10:53:18;;;;;;;8.82;5.55;;;21.60;99.90;;;;;;5071267;28;20544;-68
2022/05/19 10:55:56;;;;;;;10.77;5.95;;;21.70;99.90;;;;;;5033063;28;20051;-68
2022/05/19 10:58:33;;;;;;;8.70;5.28;;;21.80;99.90;;;;;;5054912;28;20056;-68
2022/05/19 11:01:34;;;;;;;8.52;5.40;;;21.90;99.90;;;;;;5089385;28;20039;-68
2022/05/19 11:04:00;;;;;;;7.50;5.18;;;21.90;99.90;;;;;;5053459;28;20697;-69
2022/05/19 11:06:57;;;;;;;10.02;5.78;;;21.90;99.90;;;;;;5071740;28;20047;-68
2022/05/19 11:09:51;;;;;;;11.25;5.85;;;21.90;99.90;;;;;;5088401;28;20400;-68
2022/05/19 11:12:27;;;;;;;9.48;5.78;;;21.90;99.90;;;;;;5071521;28;20071;-68
2022/05/19 11:15:03;;;;;;;8.88;5.25;;;21.90;99.90;;;;;;5089468;28;20103;-68
2022/05/19 11:17:35;;;;;;;7.53;5.15;;;22.00;99.90;;;;;;5071250;28;20028;-68
2022/05/19 11:20:22;;;;;;;10.23;5.43;;;22.00;99.90;;;;;;5070328;28;20040;-68
2022/05/19 11:22:52;;;;;;;7.65;4.25;;;22.10;99.90;;;;;;5070009;28;20075;-68
2022/05/19 11:28:36;;;;;;;7.45;4.20;;;22.20;99.90;;;;;;5070902;28;20116;-68
2022/05/19 11:31:11;;;;;;;6.63;3.97;;;22.20;99.90;;;;;;5056529;28;20032;-69
2022/05/19 11:33:39;;;;;;;6.82;3.88;;;22.30;99.90;;;;;;5071244;28;20409;-68
2022/05/19 11:36:41;;;;;;;5.97;2.67;;;22.40;99.90;;;;;;5088571;28;20050;-68
2022/05/19 11:39:16;;;;;;;5.85;3.33;;;22.50;99.90;;;;;;5068403;28;20123;-68
2022/05/19 11:41:45;;;;;;;8.23;3.78;;;22.60;99.90;;;;;;5050284;28;20037;-68
2022/05/19 11:44:14;;;;;;;5.68;3.15;;;22.60;99.90;;;;;;5068267;28;20048;-68
2022/05/19 11:46:59;;;;;;;6.47;3.17;;;22.70;99.90;;;;;;5050490;28;20067;-69
2022/05/19 11:55:37;;;;;;;4.40;2.35;;;23.00;99.90;;;;;;5038270;28;20051;-68
2022/05/19 11:58:23;;;;;;;4.07;2.20;;;23.20;99.90;;;;;;5068301;28;20037;-68
2022/05/19 12:01:00;;;;;;;3.60;2.00;;;23.30;99.90;;;;;;5050526;28;20379;-68
2022/05/19 12:03:29;;;;;;;2.80;1.60;;;23.40;99.90;;;;;;5068392;28;20497;-68
2022/05/19 12:06:29;;;;;;;3.80;1.85;;;23.40;99.90;;;;;;5050202;28;20102;-68
2022/05/19 12:09:16;;;;;;;3.03;1.67;;;23.40;99.90;;;;;;5050489;28;20067;-69
2022/05/19 12:11:45;;;;;;;3.20;1.50;;;23.50;99.90;;;;;;5049989;28;20389;-69
2022/05/19 12:14:11;;;;;;;2.67;1.50;;;23.50;99.90;;;;;;5049994;28;20127;-69
2022/05/19 12:16:49;;;;;;;4.03;1.58;;;23.50;99.90;;;;;;5033430;28;20140;-69
2022/05/19 12:19:35;;;;;;;1.88;1.05;;;23.60;99.90;;;;;;5083431;28;20119;-69
2022/05/19 12:22:12;;;;;;;1.80;0.80;;;23.60;97.00;;;;;;5083634;28;20040;-68
2022/05/19 12:24:37;;;;;;;1.85;1.15;;;23.60;99.90;;;;;;5066939;28;20055;-68
2022/05/19 12:27:24;;;;;;;2.15;0.90;;;23.50;99.90;;;;;;5086610;28;20040;-69
2022/05/19 12:33:10;;;;;;;;;;;23.50;96.80;;;;;;5088441;28;20462;-68
2022/05/19 12:35:38;;;;;;;2.58;1.02;;;23.30;94.20;;;;;;5073863;28;19920;-68
2022/05/19 12:38:25;;;;;;;2.80;1.20;;;23.30;99.80;;;;;;5092174;28;20059;-68
2022/05/19 12:40:56;;;;;;;2.88;0.98;;;23.20;99.90;;;;;;5073034;28;20036;-69
2022/05/19 12:43:23;;;;;;;2.03;1.00;;;23.10;99.20;;;;;;5073951;28;20063;-68
2022/05/19 12:45:55;;;;;;;2.15;1.10;;;23.00;99.90;;;;;;5074120;28;20046;-68
2022/05/19 12:48:32;;;;;;;1.52;0.80;;;22.90;99.00;;;;;;5092107;28;20040;-68
2022/05/19 12:51:07;;;;;;;2.53;1.30;;;22.80;99.60;;;;;;5091561;28;20044;-69
2022/05/19 12:53:50;;;;;;;1.92;1.10;;;22.80;99.20;;;;;;5073790;28;20515;-68
2022/05/19 12:56:41;;;;;;;2.05;1.10;;;22.70;99.20;;;;;;5072808;28;20063;-68
2022/05/19 12:59:27;;;;;;;1.73;1.13;;;22.60;99.40;;;;;;5056620;28;20071;-68
2022/05/19 13:01:57;;;;;;;1.83;1.08;;;22.50;99.90;;;;;;5073963;28;20397;-69
2022/05/19 13:04:25;;;;;;;2.22;1.25;;;22.50;99.90;;;;;;5073111;28;20036;-68
2022/05/19 13:07:19;;;;;;;1.73;1.15;;;22.40;99.90;;;;;;5091951;28;20136;-68
2022/05/19 13:10:01;;;;;;;2.20;1.10;;;22.30;99.90;;;;;;5068268;28;20485;-68
2022/05/19 13:12:33;;;;;;;4.15;1.45;;;22.10;99.90;;;;;;5056844;28;20032;-68
2022/05/19 13:15:02;;;;;;;2.80;1.40;;;22.00;99.90;;;;;;5073573;28;20036;-68
2022/05/19 13:17:43;;;;;;;2.60;1.30;;;21.90;99.90;;;;;;5073546;28;20071;-68
2022/05/19 13:20:21;;;;;;;2.50;1.50;;;21.70;99.90;;;;;;5056355;28;20043;-68
2022/05/19 13:22:50;;;;;;;2.30;1.10;;;21.50;99.90;;;;;;5073111;28;20524;-68
2022/05/19 13:25:17;;;;;;;2.55;1.30;;;21.30;99.90;;;;;;5090387;28;20462;-68
2022/05/19 13:30:32;;;;;;;3.75;1.85;;;20.90;99.90;;;;;;5072897;28;20040;-69